Time;durP1;ratioP1;P1;durP2;ratioP2;P2;SDS_P1;SDS_P2;PMS_P1;PMS_P2;Temp;Humidity;BMP_temperature;BMP_pressure;BME280_temperature;BME280_humidity;BME280_pressure;Samples;Min_cycle;Max_cycle;Signal;HPM_P1;HPM_P2
2024/02/17 00:00:55;;;;;;;8.07;7.13;;;11.30;99.90;;;;;;5034761;28;20240;-75
2024/02/17 00:03:22;;;;;;;9.18;7.15;;;11.30;99.90;;;;;;5029360;28;20229;-73
2024/02/17 00:05:52;;;;;;;11.32;8.70;;;11.30;99.90;;;;;;5034277;28;20216;-76
2024/02/17 00:08:20;;;;;;;13.40;8.00;;;11.30;99.90;;;;;;5027037;28;20663;-75
2024/02/17 00:10:47;;;;;;;12.23;7.63;;;11.20;99.90;;;;;;5035361;28;20254;-72
2024/02/17 00:13:14;;;;;;;14.65;9.75;;;11.30;99.90;;;;;;5033083;28;20217;-75
2024/02/17 00:15:41;;;;;;;11.85;8.70;;;11.30;99.90;;;;;;5029540;28;20196;-74
2024/02/17 00:18:09;;;;;;;11.13;9.57;;;11.30;99.90;;;;;;5033359;28;20205;-75
2024/02/17 00:20:36;;;;;;;10.82;8.90;;;11.30;99.90;;;;;;5025945;28;20205;-74
2024/02/17 00:23:05;;;;;;;9.95;7.47;;;11.30;99.90;;;;;;5033467;28;20233;-75
2024/02/17 00:25:34;;;;;;;11.63;7.63;;;11.30;99.90;;;;;;5031864;28;20663;-74
2024/02/17 00:28:01;;;;;;;14.80;8.73;;;11.30;99.90;;;;;;5032735;28;20213;-76
2024/02/17 00:30:28;;;;;;;8.65;6.35;;;11.30;99.90;;;;;;5026787;28;20656;-75
2024/02/17 00:32:55;;;;;;;12.20;8.15;;;11.30;99.90;;;;;;5034815;28;20220;-76
2024/02/17 00:35:22;;;;;;;12.48;8.55;;;11.30;99.90;;;;;;5032917;28;20261;-74
2024/02/17 00:37:49;;;;;;;9.68;7.13;;;11.30;99.90;;;;;;5038527;28;20204;-75
2024/02/17 00:40:18;;;;;;;11.30;6.60;;;11.30;99.90;;;;;;5035016;28;20200;-74
2024/02/17 00:42:45;;;;;;;9.93;6.90;;;11.30;99.90;;;;;;5033162;28;20273;-73
2024/02/17 00:45:12;;;;;;;8.82;7.20;;;11.30;99.90;;;;;;5029271;28;20681;-76
2024/02/17 00:47:39;;;;;;;11.10;8.50;;;11.30;99.90;;;;;;5029521;28;20201;-75
2024/02/17 00:50:07;;;;;;;13.98;9.05;;;11.40;99.90;;;;;;5033954;28;20205;-75
2024/02/17 00:52:34;;;;;;;10.82;7.50;;;11.40;99.90;;;;;;5033319;28;20248;-73
2024/02/17 00:55:01;;;;;;;10.32;7.90;;;11.40;99.90;;;;;;5031541;28;20278;-74
2024/02/17 00:57:30;;;;;;;11.30;9.18;;;11.40;99.90;;;;;;5034115;28;20212;-75
2024/02/17 00:59:57;;;;;;;14.00;8.75;;;11.40;99.90;;;;;;5032903;28;20216;-73
2024/02/17 01:02:29;;;;;;;15.95;8.65;;;11.40;99.90;;;;;;5032756;28;20229;-75
2024/02/17 01:04:56;;;;;;;20.42;9.20;;;11.40;99.90;;;;;;5028651;28;20240;-73
2024/02/17 01:07:23;;;;;;;9.68;7.57;;;11.40;99.90;;;;;;5033574;28;20263;-74
2024/02/17 01:09:51;;;;;;;10.60;8.20;;;11.40;99.90;;;;;;5038381;28;20213;-75
2024/02/17 01:12:18;;;;;;;12.00;8.85;;;11.40;99.90;;;;;;5039127;28;20196;-75
2024/02/17 01:14:47;;;;;;;14.43;8.68;;;11.40;99.90;;;;;;5036017;28;20204;-74
2024/02/17 01:17:14;;;;;;;13.45;8.90;;;11.40;99.90;;;;;;5031448;28;20212;-75
2024/02/17 01:19:41;;;;;;;12.48;9.43;;;11.30;99.90;;;;;;5032560;28;20208;-74
2024/02/17 01:22:08;;;;;;;15.48;9.13;;;11.30;99.90;;;;;;5034750;28;20208;-75
2024/02/17 01:24:36;;;;;;;16.15;10.07;;;11.30;99.90;;;;;;5034694;28;20532;-75
2024/02/17 01:27:06;;;;;;;13.15;9.02;;;11.40;99.90;;;;;;5034861;28;20682;-75
2024/02/17 01:29:33;;;;;;;11.48;8.75;;;11.40;99.90;;;;;;5032970;28;20204;-75
2024/02/17 01:32:02;;;;;;;12.43;8.15;;;11.40;99.90;;;;;;5032974;28;20208;-75
2024/02/17 01:34:29;;;;;;;16.55;8.90;;;11.40;99.90;;;;;;5034260;28;20205;-75
2024/02/17 01:36:56;;;;;;;16.05;7.60;;;11.40;99.90;;;;;;5031884;28;20259;-76
2024/02/17 01:39:23;;;;;;;14.32;8.25;;;11.40;99.90;;;;;;5038781;28;20205;-76
2024/02/17 01:41:50;;;;;;;12.27;8.25;;;11.40;99.90;;;;;;5029448;28;20628;-74
2024/02/17 01:44:21;;;;;;;14.02;9.77;;;11.30;99.90;;;;;;5033326;28;20240;-75
2024/02/17 01:46:49;;;;;;;11.98;7.78;;;11.30;99.90;;;;;;5033916;28;20280;-75
2024/02/17 01:49:19;;;;;;;11.73;8.93;;;11.30;99.90;;;;;;5030037;28;20298;-74
2024/02/17 01:51:47;;;;;;;10.77;7.63;;;11.20;99.90;;;;;;5026862;28;20192;-74
2024/02/17 01:54:16;;;;;;;13.00;7.22;;;11.30;99.90;;;;;;5033424;28;20228;-74
2024/02/17 01:56:46;;;;;;;14.75;8.73;;;11.20;99.90;;;;;;5026465;28;20197;-75
2024/02/17 01:59:14;;;;;;;8.27;6.60;;;11.20;99.90;;;;;;5032961;28;20658;-75
2024/02/17 02:01:43;;;;;;;12.05;8.13;;;11.20;99.90;;;;;;5032165;28;20220;-74
2024/02/17 02:04:11;;;;;;;10.82;6.90;;;11.20;99.90;;;;;;5033089;28;20221;-75
2024/02/17 02:06:41;;;;;;;9.98;7.68;;;11.20;99.90;;;;;;5030108;28;20240;-74
2024/02/17 02:09:08;;;;;;;9.75;7.20;;;11.20;99.90;;;;;;5042298;28;20651;-74
2024/02/17 02:11:35;;;;;;;11.50;7.18;;;11.20;99.90;;;;;;5034911;28;20250;-74
2024/02/17 02:14:18;;;;;;;10.25;7.15;;;11.20;99.90;;;;;;5039596;28;20588;-74
2024/02/17 02:16:47;;;;;;;14.05;8.05;;;11.20;99.90;;;;;;5028219;28;20204;-74
2024/02/17 02:19:15;;;;;;;11.10;7.30;;;11.10;99.90;;;;;;5033189;28;20605;-76
2024/02/17 02:21:44;;;;;;;8.85;7.03;;;11.10;99.90;;;;;;5031514;28;20683;-75
2024/02/17 02:24:12;;;;;;;12.82;6.57;;;11.10;99.90;;;;;;5032014;28;20224;-76
2024/02/17 02:26:40;;;;;;;12.13;7.35;;;11.00;99.90;;;;;;5031084;28;20209;-74
2024/02/17 02:29:07;;;;;;;11.77;8.15;;;11.00;99.90;;;;;;5030943;28;20266;-73
2024/02/17 02:31:34;;;;;;;12.93;8.13;;;11.00;99.90;;;;;;5029366;28;20200;-73
2024/02/17 02:34:02;;;;;;;17.30;7.70;;;11.00;99.90;;;;;;5037128;28;20221;-74
2024/02/17 02:36:29;;;;;;;7.88;6.28;;;10.90;99.90;;;;;;5029551;28;20211;-75
2024/02/17 02:38:56;;;;;;;10.80;7.50;;;10.90;99.90;;;;;;5028613;28;20694;-74
2024/02/17 02:41:23;;;;;;;16.40;8.32;;;10.90;99.90;;;;;;5029182;28;20201;-75
2024/02/17 02:43:52;;;;;;;8.70;6.45;;;10.90;99.90;;;;;;5032873;28;20315;-75
2024/02/17 02:46:19;;;;;;;14.52;6.95;;;10.90;99.90;;;;;;5029262;28;20200;-75
2024/02/17 02:48:46;;;;;;;12.27;6.38;;;11.00;99.90;;;;;;5030637;28;20793;-75
2024/02/17 02:51:16;;;;;;;10.43;6.05;;;11.10;99.90;;;;;;5028610;28;20201;-77
2024/02/17 02:53:43;;;;;;;11.20;7.15;;;11.10;99.90;;;;;;5030087;28;20307;-75
2024/02/17 02:56:10;;;;;;;11.73;5.90;;;11.10;99.90;;;;;;5025812;28;20284;-74
2024/02/17 02:58:37;;;;;;;7.50;5.75;;;11.10;99.90;;;;;;5028000;28;20226;-76
2024/02/17 03:01:06;;;;;;;12.77;8.18;;;11.10;99.90;;;;;;5030977;28;20258;-74
2024/02/17 03:03:33;;;;;;;8.25;5.35;;;10.90;99.90;;;;;;5026149;28;20275;-75
2024/02/17 03:06:00;;;;;;;7.78;4.80;;;10.80;99.90;;;;;;5043625;28;20188;-74
2024/02/17 03:08:27;;;;;;;7.32;4.63;;;10.70;99.90;;;;;;5032444;28;20740;-74
2024/02/17 03:10:57;;;;;;;6.88;4.95;;;10.60;99.90;;;;;;5032489;28;20594;-75
2024/02/17 03:13:24;;;;;;;5.68;4.53;;;10.50;99.90;;;;;;5033406;28;20620;-75
2024/02/17 03:15:51;;;;;;;9.73;5.63;;;10.60;99.90;;;;;;5028621;28;20185;-75
2024/02/17 03:18:20;;;;;;;5.50;4.25;;;10.60;99.90;;;;;;5029398;28;20208;-75
2024/02/17 03:20:47;;;;;;;9.52;4.50;;;10.50;99.90;;;;;;5031526;28;20256;-74
2024/02/17 03:23:14;;;;;;;7.75;4.30;;;10.50;99.90;;;;;;5031972;28;20233;-75
2024/02/17 03:25:41;;;;;;;9.48;3.42;;;10.50;99.90;;;;;;5029014;28;20704;-75
2024/02/17 03:28:08;;;;;;;4.93;3.65;;;10.50;99.90;;;;;;5027931;28;20201;-76
2024/02/17 03:30:35;;;;;;;5.00;3.40;;;10.50;99.90;;;;;;5031909;28;20682;-73
2024/02/17 03:33:02;;;;;;;2.67;2.15;;;10.50;99.90;;;;;;5026248;28;20229;-73
2024/02/17 03:35:31;;;;;;;3.50;3.00;;;10.50;99.90;;;;;;5028825;28;20263;-76
2024/02/17 03:37:58;;;;;;;7.57;3.10;;;10.40;99.90;;;;;;5024422;28;20209;-74
2024/02/17 03:40:25;;;;;;;3.88;2.33;;;10.50;99.90;;;;;;5032371;28;20204;-75
2024/02/17 03:42:52;;;;;;;6.43;2.25;;;10.50;99.90;;;;;;5032309;28;20228;-75
2024/02/17 03:45:19;;;;;;;4.57;2.45;;;10.50;99.90;;;;;;5028538;28;20205;-73
2024/02/17 03:47:46;;;;;;;3.78;2.15;;;10.60;99.90;;;;;;5025652;28;20201;-76
2024/02/17 03:50:13;;;;;;;2.42;2.22;;;10.60;99.90;;;;;;5031184;28;20209;-74
2024/02/17 03:52:41;;;;;;;5.05;2.72;;;10.60;99.90;;;;;;5031706;28;20279;-74
2024/02/17 03:55:09;;;;;;;4.90;2.60;;;10.60;99.90;;;;;;5032173;28;20200;-74
2024/02/17 03:57:36;;;;;;;6.07;4.25;;;10.60;99.90;;;;;;5024858;28;20200;-75
2024/02/17 04:00:06;;;;;;;3.85;2.53;;;10.60;99.90;;;;;;5032256;28;20553;-74
2024/02/17 04:02:33;;;;;;;5.47;2.55;;;10.60;99.90;;;;;;5032890;28;20232;-75
2024/02/17 04:05:00;;;;;;;6.30;3.00;;;10.60;99.90;;;;;;5035419;28;20362;-74
2024/02/17 04:07:27;;;;;;;5.15;2.28;;;10.60;99.90;;;;;;5031388;28;20202;-74
2024/02/17 04:09:56;;;;;;;2.53;1.80;;;10.60;99.90;;;;;;5029932;28;20229;-74
2024/02/17 04:12:23;;;;;;;3.30;1.77;;;10.50;99.90;;;;;;5031786;28;20221;-75
2024/02/17 04:14:50;;;;;;;3.75;1.77;;;10.50;99.90;;;;;;5038154;28;20200;-74
2024/02/17 04:17:17;;;;;;;4.50;2.13;;;10.50;99.90;;;;;;5034813;28;20651;-75
2024/02/17 04:19:44;;;;;;;2.35;1.83;;;10.50;99.90;;;;;;5037808;28;20567;-74
2024/02/17 04:22:11;;;;;;;3.55;1.80;;;10.50;99.90;;;;;;5037017;28;20213;-74
2024/02/17 04:24:39;;;;;;;3.75;2.20;;;10.50;99.90;;;;;;5035179;28;20946;-74
2024/02/17 04:27:08;;;;;;;5.00;1.95;;;10.40;99.90;;;;;;5033008;28;20235;-74
2024/02/17 04:29:35;;;;;;;4.30;1.40;;;10.40;99.90;;;;;;5033965;28;20200;-75
2024/02/17 04:32:02;;;;;;;2.95;2.00;;;10.40;99.90;;;;;;5023447;28;20279;-71
2024/02/17 04:34:29;;;;;;;2.20;1.98;;;10.30;99.90;;;;;;5035152;28;20209;-74
2024/02/17 04:36:56;;;;;;;5.13;1.63;;;10.40;99.90;;;;;;5032675;28;20205;-73
2024/02/17 04:39:23;;;;;;;3.05;1.23;;;10.30;99.90;;;;;;5039181;28;20200;-72
2024/02/17 04:41:50;;;;;;;1.88;1.50;;;10.30;99.90;;;;;;5038603;28;20209;-74
2024/02/17 04:44:19;;;;;;;3.22;2.03;;;10.30;99.90;;;;;;5034010;28;20232;-74
2024/02/17 04:46:46;;;;;;;5.30;1.65;;;10.30;99.90;;;;;;5031394;28;20205;-74
2024/02/17 04:49:13;;;;;;;3.17;1.80;;;10.30;99.90;;;;;;5034831;28;20232;-74
2024/02/17 04:51:41;;;;;;;2.88;2.35;;;10.30;99.90;;;;;;5033370;28;20221;-73
2024/02/17 04:54:08;;;;;;;5.55;1.98;;;10.30;99.90;;;;;;5034087;28;20229;-74
2024/02/17 04:56:35;;;;;;;5.63;2.40;;;10.30;99.90;;;;;;5033714;28;20229;-75
2024/02/17 04:59:03;;;;;;;2.92;2.30;;;10.30;99.90;;;;;;5034428;28;20266;-74
2024/02/17 05:01:31;;;;;;;4.10;2.55;;;10.30;99.90;;;;;;5032968;28;20275;-74
2024/02/17 05:03:58;;;;;;;4.07;2.85;;;10.30;99.90;;;;;;5034056;28;20577;-74
2024/02/17 05:06:25;;;;;;;4.47;2.35;;;10.30;99.90;;;;;;5032891;28;20284;-73
2024/02/17 05:08:52;;;;;;;2.95;2.22;;;10.20;99.90;;;;;;5034449;28;20196;-74
2024/02/17 05:11:20;;;;;;;2.63;1.63;;;10.10;99.90;;;;;;5032163;28;20201;-75
2024/02/17 05:13:47;;;;;;;2.55;1.75;;;10.10;99.90;;;;;;5028402;28;20252;-75
2024/02/17 05:16:14;;;;;;;2.25;1.63;;;10.10;99.90;;;;;;5032638;28;20209;-75
2024/02/17 05:18:42;;;;;;;3.15;1.30;;;10.10;99.90;;;;;;5034381;28;20258;-74
2024/02/17 05:21:10;;;;;;;2.70;1.60;;;10.10;99.90;;;;;;5031562;28;20205;-74
2024/02/17 05:23:37;;;;;;;1.85;1.25;;;10.00;99.90;;;;;;5033354;28;20232;-74
2024/02/17 05:26:04;;;;;;;5.30;2.00;;;10.10;99.90;;;;;;5032629;28;20200;-77
2024/02/17 05:28:31;;;;;;;4.25;1.65;;;10.10;99.90;;;;;;5033612;28;20632;-75
2024/02/17 05:30:58;;;;;;;4.03;2.08;;;10.10;99.90;;;;;;5031840;28;20212;-75
2024/02/17 05:33:25;;;;;;;2.88;2.00;;;10.20;99.90;;;;;;5033166;28;20228;-75
2024/02/17 05:35:54;;;;;;;6.20;2.83;;;10.20;99.90;;;;;;5027896;28;20354;-75
2024/02/17 05:38:21;;;;;;;5.32;2.28;;;10.10;99.90;;;;;;5033453;28;20609;-74
2024/02/17 05:40:48;;;;;;;6.28;2.05;;;10.10;99.90;;;;;;5021577;28;20251;-75
2024/02/17 05:43:15;;;;;;;7.53;2.40;;;10.10;99.90;;;;;;5031600;28;20220;-74
2024/02/17 05:45:42;;;;;;;7.53;2.90;;;10.00;99.90;;;;;;5028307;28;20204;-75
2024/02/17 05:48:09;;;;;;;3.58;3.00;;;10.00;99.90;;;;;;5028585;28;20283;-75
2024/02/17 05:50:36;;;;;;;4.80;2.47;;;10.10;99.90;;;;;;5031994;28;20201;-74
2024/02/17 05:53:05;;;;;;;4.68;2.47;;;10.10;99.90;;;;;;5032507;28;20217;-75
2024/02/17 05:55:32;;;;;;;3.45;1.92;;;10.10;99.90;;;;;;5032704;28;20244;-75
2024/02/17 05:58:00;;;;;;;9.60;2.30;;;10.10;99.90;;;;;;5030015;28;20262;-75
2024/02/17 06:00:27;;;;;;;3.58;2.65;;;10.00;99.90;;;;;;5032310;28;20212;-75
2024/02/17 06:02:54;;;;;;;2.75;1.65;;;10.00;99.90;;;;;;5035529;28;20737;-74
2024/02/17 06:05:21;;;;;;;2.05;1.63;;;10.10;99.90;;;;;;5033160;28;20656;-75
2024/02/17 06:07:48;;;;;;;1.63;1.35;;;10.00;99.90;;;;;;5035483;28;20698;-75
2024/02/17 06:10:16;;;;;;;4.00;1.67;;;9.90;99.90;;;;;;5030405;28;20257;-75
2024/02/17 06:12:43;;;;;;;10.88;5.63;;;9.90;99.90;;;;;;5027166;28;20225;-74
2024/02/17 06:15:10;;;;;;;3.28;1.60;;;9.80;99.90;;;;;;5039615;28;20659;-75
2024/02/17 06:17:42;;;;;;;5.22;1.85;;;9.80;99.90;;;;;;5028494;28;20662;-74
2024/02/17 06:23:04;;;;;;;3.90;1.73;;;9.80;99.90;;;;;;4998551;28;20225;-75
2024/02/17 06:25:32;;;;;;;3.53;1.42;;;9.70;99.90;;;;;;5025615;28;20209;-75
2024/02/17 06:27:59;;;;;;;2.58;1.27;;;9.70;99.90;;;;;;5035309;28;20253;-75
2024/02/17 06:30:29;;;;;;;6.25;1.70;;;9.70;99.90;;;;;;5036437;28;20209;-75
2024/02/17 06:32:56;;;;;;;2.25;2.05;;;9.80;99.90;;;;;;5031992;28;20259;-76
2024/02/17 06:35:23;;;;;;;5.25;2.67;;;9.80;99.90;;;;;;5032912;28;20215;-74
2024/02/17 06:37:50;;;;;;;7.28;2.95;;;9.80;99.90;;;;;;5033562;28;20264;-73
2024/02/17 06:40:17;;;;;;;6.97;3.42;;;9.80;99.90;;;;;;5036464;28;20208;-74
2024/02/17 06:42:45;;;;;;;7.10;3.95;;;9.70;99.90;;;;;;5026143;28;20224;-74
2024/02/17 06:45:16;;;;;;;6.70;3.15;;;9.70;99.90;;;;;;5031223;28;20256;-75
2024/02/17 06:47:43;;;;;;;6.38;3.95;;;9.70;99.90;;;;;;5020522;28;20209;-74
2024/02/17 06:50:11;;;;;;;15.15;4.45;;;9.60;99.90;;;;;;5032909;28;20250;-74
2024/02/17 06:52:38;;;;;;;4.38;3.70;;;9.50;99.90;;;;;;5026289;28;20225;-75
2024/02/17 06:55:06;;;;;;;6.90;3.60;;;9.50;99.90;;;;;;5028598;28;20201;-73
2024/02/17 06:57:33;;;;;;;5.95;3.20;;;9.50;99.90;;;;;;5023105;28;20679;-72
2024/02/17 07:00:01;;;;;;;10.77;3.13;;;9.40;99.90;;;;;;5026993;28;20318;-72
2024/02/17 07:02:30;;;;;;;3.90;2.38;;;9.40;99.90;;;;;;5036326;28;20220;-72
2024/02/17 07:04:57;;;;;;;2.63;1.60;;;9.40;99.90;;;;;;5032762;28;20235;-73
2024/02/17 07:07:24;;;;;;;2.45;1.23;;;9.30;99.90;;;;;;5035099;28;20208;-72
2024/02/17 07:09:51;;;;;;;1.45;1.13;;;9.30;99.90;;;;;;5029087;28;20204;-73
2024/02/17 07:12:18;;;;;;;4.10;1.45;;;9.20;99.90;;;;;;5031947;28;20616;-71
2024/02/17 07:14:45;;;;;;;1.45;1.20;;;9.30;99.90;;;;;;5029637;28;20205;-74
2024/02/17 07:17:13;;;;;;;2.45;0.90;;;9.40;99.90;;;;;;5029378;28;20231;-73
2024/02/17 07:19:40;;;;;;;1.77;1.08;;;9.40;99.90;;;;;;5031626;28;20201;-75
2024/02/17 07:22:08;;;;;;;2.30;1.05;;;9.30;99.90;;;;;;5028503;28;20663;-72
2024/02/17 07:24:35;;;;;;;1.20;1.00;;;9.40;99.90;;;;;;5033541;28;20221;-73
2024/02/17 07:27:02;;;;;;;2.58;0.95;;;9.30;99.90;;;;;;5031565;28;20213;-73
2024/02/17 07:29:29;;;;;;;1.83;1.30;;;9.30;99.90;;;;;;5031041;28;20243;-73
2024/02/17 07:31:56;;;;;;;4.47;1.73;;;9.20;99.90;;;;;;5033791;28;20278;-72
2024/02/17 07:34:25;;;;;;;7.53;1.33;;;9.20;99.90;;;;;;5031541;28;20647;-71
2024/02/17 07:36:52;;;;;;;1.42;1.10;;;9.20;99.90;;;;;;5028230;28;20197;-72
2024/02/17 07:39:19;;;;;;;2.30;0.85;;;9.30;99.90;;;;;;5037195;28;20247;-71
2024/02/17 07:41:46;;;;;;;1.63;0.80;;;9.20;99.90;;;;;;5037897;28;20607;-72
2024/02/17 07:44:14;;;;;;;2.90;1.02;;;9.30;99.90;;;;;;5035705;28;20232;-71
2024/02/17 07:46:42;;;;;;;3.42;1.50;;;9.30;99.90;;;;;;5036881;28;20200;-73
2024/02/17 07:49:09;;;;;;;5.95;2.13;;;9.30;99.90;;;;;;5032537;28;20544;-74
2024/02/17 07:51:38;;;;;;;2.17;0.93;;;9.20;99.90;;;;;;5034104;28;20200;-73
2024/02/17 07:54:05;;;;;;;1.60;1.15;;;9.30;99.90;;;;;;5035507;28;20299;-73
2024/02/17 07:56:32;;;;;;;1.75;0.98;;;9.20;99.90;;;;;;5039009;28;20212;-74
2024/02/17 07:58:59;;;;;;;9.13;1.80;;;9.20;99.90;;;;;;5029339;28;20205;-73
2024/02/17 08:01:26;;;;;;;1.33;1.23;;;9.20;99.90;;;;;;5029882;28;20759;-72
2024/02/17 08:03:53;;;;;;;2.25;2.05;;;9.40;99.90;;;;;;5040174;28;20220;-72
2024/02/17 08:06:20;;;;;;;0.80;0.60;;;9.30;99.90;;;;;;5031629;28;20198;-72
2024/02/17 08:08:49;;;;;;;3.45;0.93;;;9.40;99.90;;;;;;5033894;28;20292;-74
2024/02/17 08:11:16;;;;;;;8.77;1.73;;;9.40;99.90;;;;;;5033755;28;20254;-72
2024/02/17 08:13:43;;;;;;;3.90;1.58;;;9.50;99.90;;;;;;5031962;28;20666;-72
2024/02/17 08:16:12;;;;;;;5.22;1.77;;;9.60;99.90;;;;;;5034651;28;20204;-73
2024/02/17 08:18:41;;;;;;;2.00;0.93;;;10.00;99.90;;;;;;5032112;28;20291;-74
2024/02/17 08:21:08;;;;;;;1.98;1.00;;;10.10;99.90;;;;;;5038951;28;20597;-72
2024/02/17 08:23:35;;;;;;;4.68;1.40;;;10.20;99.90;;;;;;5025417;28;20634;-72
2024/02/17 08:26:05;;;;;;;4.93;1.20;;;10.10;99.90;;;;;;5034547;28;20201;-74
2024/02/17 08:28:32;;;;;;;6.43;1.70;;;10.00;99.90;;;;;;5033405;28;20208;-74
2024/02/17 08:30:59;;;;;;;3.40;1.05;;;9.90;99.90;;;;;;5032906;28;20737;-73
2024/02/17 08:33:26;;;;;;;4.63;1.20;;;9.90;99.90;;;;;;5034070;28;20248;-72
2024/02/17 08:35:53;;;;;;;5.07;1.60;;;9.70;99.90;;;;;;5033350;28;20208;-72
2024/02/17 08:38:20;;;;;;;4.13;1.35;;;9.70;99.90;;;;;;5030428;28;20208;-72
2024/02/17 08:40:47;;;;;;;6.90;1.90;;;9.70;99.90;;;;;;5031390;28;20250;-72
2024/02/17 08:43:16;;;;;;;8.05;1.60;;;9.80;99.90;;;;;;5034295;28;20217;-74
2024/02/17 08:45:43;;;;;;;5.68;2.90;;;9.80;99.90;;;;;;5032091;28;20230;-73
2024/02/17 08:48:10;;;;;;;6.05;1.52;;;9.70;99.90;;;;;;5023083;28;20204;-74
2024/02/17 08:50:37;;;;;;;9.90;1.70;;;9.70;99.90;;;;;;5032911;28;20259;-74
2024/02/17 08:53:04;;;;;;;15.25;3.60;;;9.80;99.90;;;;;;5033105;28;20225;-76
2024/02/17 08:55:31;;;;;;;7.45;1.60;;;9.80;99.90;;;;;;5033165;28;20193;-73
2024/02/17 08:57:58;;;;;;;4.93;1.92;;;9.80;99.90;;;;;;5028111;28;20672;-73
2024/02/17 09:00:26;;;;;;;7.40;2.03;;;10.00;99.90;;;;;;5034131;28;20725;-73
2024/02/17 09:02:53;;;;;;;12.10;1.88;;;10.30;99.90;;;;;;5034908;28;20232;-73
2024/02/17 09:05:21;;;;;;;6.40;2.90;;;10.30;99.90;;;;;;5032628;28;20769;-74
2024/02/17 09:07:48;;;;;;;16.23;2.75;;;10.30;99.90;;;;;;5034318;28;20216;-74
2024/02/17 09:10:16;;;;;;;5.57;1.88;;;10.40;99.90;;;;;;5032122;28;20888;-74
2024/02/17 09:12:43;;;;;;;8.38;2.75;;;10.30;99.90;;;;;;5033776;28;20691;-74
2024/02/17 09:15:11;;;;;;;10.77;2.45;;;10.40;99.90;;;;;;5040978;28;20213;-73
2024/02/17 09:17:39;;;;;;;9.43;2.28;;;10.40;99.90;;;;;;5034301;28;20570;-73
2024/02/17 09:20:07;;;;;;;7.95;1.92;;;10.40;99.90;;;;;;5032093;28;20648;-73
2024/02/17 09:22:35;;;;;;;9.35;2.53;;;10.50;99.90;;;;;;5036463;28;20315;-72
2024/02/17 09:25:02;;;;;;;4.65;2.40;;;10.50;99.90;;;;;;5033310;28;20279;-73
2024/02/17 09:27:29;;;;;;;9.85;2.70;;;10.60;99.90;;;;;;5032684;28;20583;-72
2024/02/17 09:29:56;;;;;;;10.02;2.00;;;10.60;99.90;;;;;;5033076;28;20217;-72
2024/02/17 09:32:23;;;;;;;4.55;1.98;;;10.60;99.90;;;;;;5032854;28;20246;-74
2024/02/17 09:34:51;;;;;;;8.02;1.88;;;10.50;99.90;;;;;;5029846;28;20209;-73
2024/02/17 09:37:18;;;;;;;8.13;2.78;;;10.70;99.90;;;;;;5033377;28;20298;-73
2024/02/17 09:39:45;;;;;;;6.30;1.67;;;10.70;99.90;;;;;;5032742;28;20240;-73
2024/02/17 09:42:12;;;;;;;8.13;2.22;;;10.70;99.90;;;;;;5031945;28;20205;-73
2024/02/17 09:44:41;;;;;;;7.75;2.30;;;10.70;99.90;;;;;;5033955;28;20337;-73
2024/02/17 09:47:08;;;;;;;5.93;2.83;;;10.50;99.90;;;;;;5027684;28;20303;-72
2024/02/17 09:49:36;;;;;;;6.05;2.50;;;10.30;99.90;;;;;;5027941;28;20433;-73
2024/02/17 09:52:05;;;;;;;10.18;2.65;;;10.40;99.90;;;;;;5030666;28;20247;-73
2024/02/17 09:54:34;;;;;;;12.82;2.70;;;10.40;99.90;;;;;;5032382;28;20201;-74
2024/02/17 09:57:01;;;;;;;7.80;2.80;;;10.50;99.90;;;;;;5024700;28;20272;-75
2024/02/17 09:59:28;;;;;;;8.65;2.70;;;10.50;99.90;;;;;;5030765;28;20647;-74
2024/02/17 10:01:55;;;;;;;6.15;1.60;;;10.80;99.90;;;;;;5030890;28;20512;-74
2024/02/17 10:04:22;;;;;;;5.30;2.15;;;10.90;99.90;;;;;;5033769;28;20224;-74
2024/02/17 10:06:59;;;;;;;4.10;1.35;;;11.00;99.90;;;;;;5029633;28;20358;-73
2024/02/17 10:09:28;;;;;;;4.88;1.60;;;11.00;99.90;;;;;;5020383;28;20232;-73
2024/02/17 10:11:55;;;;;;;17.23;1.90;;;10.90;99.90;;;;;;5029045;28;20288;-73
2024/02/17 10:14:24;;;;;;;11.73;2.00;;;10.80;99.90;;;;;;5025711;28;20221;-73
2024/02/17 10:16:58;;;;;;;5.88;2.53;;;10.70;99.90;;;;;;5031112;28;20205;-73
2024/02/17 10:19:25;;;;;;;7.57;2.60;;;10.60;99.90;;;;;;5022203;28;20288;-72
2024/02/17 10:21:54;;;;;;;3.20;1.85;;;10.50;99.90;;;;;;5026784;28;20200;-72
2024/02/17 10:24:22;;;;;;;4.75;2.38;;;10.60;99.90;;;;;;5032049;28;20267;-72
2024/02/17 10:26:53;;;;;;;11.40;2.80;;;10.70;99.90;;;;;;5028122;28;20270;-72
2024/02/17 10:29:20;;;;;;;8.65;2.22;;;10.70;99.90;;;;;;5031946;28;20327;-72
2024/02/17 10:31:48;;;;;;;6.82;2.78;;;10.80;99.90;;;;;;5029988;28;20200;-72
2024/02/17 10:34:15;;;;;;;7.40;2.28;;;10.70;99.90;;;;;;5031428;28;20247;-75
2024/02/17 10:36:43;;;;;;;5.13;2.70;;;10.60;99.90;;;;;;5030490;28;20204;-74
2024/02/17 10:39:11;;;;;;;7.15;2.55;;;10.50;99.90;;;;;;5032316;28;20205;-73
2024/02/17 10:41:38;;;;;;;12.38;2.78;;;10.50;99.90;;;;;;5031716;28;20306;-73
2024/02/17 10:44:07;;;;;;;11.02;2.53;;;10.50;99.90;;;;;;5036671;28;20714;-71
2024/02/17 10:46:35;;;;;;;4.07;2.30;;;10.60;99.90;;;;;;5034396;28;20278;-72
2024/02/17 10:49:11;;;;;;;9.57;2.60;;;10.70;99.90;;;;;;5032946;28;20197;-73
2024/02/17 10:51:46;;;;;;;8.00;1.92;;;10.80;99.90;;;;;;5031322;28;20266;-72
2024/02/17 10:54:21;;;;;;;6.60;2.97;;;10.90;99.90;;;;;;5032519;28;20300;-73
2024/02/17 10:56:49;;;;;;;5.18;2.17;;;11.20;99.90;;;;;;5033866;28;20257;-72
2024/02/17 10:59:20;;;;;;;6.70;2.97;;;11.60;99.90;;;;;;5029043;28;20205;-74
2024/02/17 11:01:47;;;;;;;5.45;2.08;;;11.60;99.90;;;;;;5028938;28;20255;-74
2024/02/17 11:04:14;;;;;;;9.68;2.80;;;11.60;99.90;;;;;;5024081;28;20221;-74
2024/02/17 11:06:42;;;;;;;6.22;2.25;;;11.70;99.90;;;;;;5029630;28;20196;-73
2024/02/17 11:09:10;;;;;;;9.13;2.90;;;11.70;99.90;;;;;;5029756;28;20201;-74
2024/02/17 11:11:39;;;;;;;6.00;2.50;;;11.70;99.90;;;;;;5032901;28;20225;-73
2024/02/17 11:14:43;;;;;;;9.20;2.30;;;11.80;99.90;;;;;;5031800;28;20326;-73
2024/02/17 11:17:10;;;;;;;4.28;2.03;;;11.80;99.90;;;;;;5026107;28;20730;-74
2024/02/17 11:19:37;;;;;;;7.90;3.25;;;11.90;99.90;;;;;;5028007;28;20276;-73
2024/02/17 11:22:07;;;;;;;7.47;2.00;;;12.10;99.90;;;;;;5034749;28;20650;-76
2024/02/17 11:24:37;;;;;;;3.08;1.30;;;12.40;99.90;;;;;;5033792;28;20231;-76
2024/02/17 11:27:08;;;;;;;4.72;1.45;;;12.40;99.90;;;;;;5035641;28;20381;-74
2024/02/17 11:29:36;;;;;;;7.25;2.25;;;12.20;99.90;;;;;;5034136;28;20206;-74
2024/02/17 11:32:05;;;;;;;7.18;2.22;;;12.20;99.90;;;;;;5035043;28;20575;-73
2024/02/17 11:34:32;;;;;;;6.10;2.90;;;12.40;99.90;;;;;;5034554;28;20266;-73
2024/02/17 11:36:59;;;;;;;16.42;2.47;;;12.60;99.90;;;;;;5035248;28;20208;-73
2024/02/17 11:39:26;;;;;;;4.90;1.73;;;12.70;99.90;;;;;;5033550;28;20203;-72
2024/02/17 11:41:53;;;;;;;11.88;3.13;;;12.70;99.90;;;;;;5034693;28;20205;-72
2024/02/17 11:44:20;;;;;;;7.25;3.45;;;12.50;99.90;;;;;;5034720;28;20669;-74
2024/02/17 11:46:48;;;;;;;7.32;2.80;;;12.20;99.90;;;;;;5033646;28;20205;-73
2024/02/17 11:49:24;;;;;;;4.43;2.03;;;12.10;99.90;;;;;;5034555;28;20693;-72
2024/02/17 11:51:51;;;;;;;12.80;3.65;;;12.10;99.90;;;;;;5038375;28;20624;-74
2024/02/17 11:54:19;;;;;;;13.43;3.60;;;12.00;99.90;;;;;;5036166;28;20599;-74
2024/02/17 11:56:46;;;;;;;9.18;2.72;;;11.90;99.90;;;;;;5037693;28;20267;-73
2024/02/17 11:59:16;;;;;;;6.07;2.30;;;11.60;99.90;;;;;;5046826;28;20204;-74
2024/02/17 12:01:42;;;;;;;8.82;3.30;;;11.40;99.90;;;;;;5035924;28;20197;-75
2024/02/17 12:04:10;;;;;;;6.80;2.28;;;11.50;99.90;;;;;;5037361;28;20283;-74
2024/02/17 12:06:39;;;;;;;10.20;3.17;;;11.60;99.90;;;;;;5034553;28;20691;-75
2024/02/17 12:09:08;;;;;;;10.10;2.13;;;11.70;99.90;;;;;;5034597;28;20197;-73
2024/02/17 12:11:35;;;;;;;5.43;1.83;;;11.70;99.90;;;;;;5032905;28;20197;-74
2024/02/17 12:14:03;;;;;;;9.05;1.90;;;11.70;99.90;;;;;;5037914;28;20220;-74
2024/02/17 12:16:30;;;;;;;8.05;2.63;;;11.70;99.90;;;;;;5036647;28;20259;-73
2024/02/17 12:18:58;;;;;;;7.82;2.10;;;11.40;99.90;;;;;;5027711;28;20204;-74
2024/02/17 12:21:25;;;;;;;8.38;2.63;;;11.40;99.90;;;;;;5033879;28;20216;-73
2024/02/17 12:23:55;;;;;;;6.22;2.17;;;11.40;99.90;;;;;;5034175;28;20546;-74
2024/02/17 12:26:23;;;;;;;9.02;3.40;;;11.20;99.90;;;;;;5029474;28;20231;-75
2024/02/17 12:28:50;;;;;;;7.95;2.78;;;11.20;99.90;;;;;;5034218;28;20735;-73
2024/02/17 12:31:18;;;;;;;9.02;3.28;;;11.20;99.90;;;;;;5034223;28;20605;-75
2024/02/17 12:33:47;;;;;;;9.30;2.25;;;11.20;99.90;;;;;;5034328;28;20256;-74
2024/02/17 12:36:17;;;;;;;7.10;2.30;;;11.20;99.90;;;;;;5034814;28;20280;-73
2024/02/17 12:38:44;;;;;;;14.98;3.33;;;11.20;99.90;;;;;;5034017;28;20685;-75
2024/02/17 12:41:15;;;;;;;7.22;2.33;;;11.20;99.90;;;;;;5030673;28;20256;-74
2024/02/17 12:43:47;;;;;;;7.53;2.05;;;11.20;99.90;;;;;;5025914;28;20228;-73
2024/02/17 12:46:20;;;;;;;6.57;1.60;;;11.20;99.90;;;;;;5031656;28;20275;-71
2024/02/17 12:48:49;;;;;;;6.07;2.15;;;11.30;99.90;;;;;;5032628;28;20259;-75
2024/02/17 12:51:20;;;;;;;9.77;1.50;;;11.30;99.90;;;;;;5032818;28;20290;-75